sensor_id;sensor_type;location;lat;lon;timestamp;P1;durP1;ratioP1;P2;durP2;ratioP2
27489;SDS011;14925;51.026;13.752;2023-05-16T00:01:39;16.90;;;9.70;;
27489;SDS011;14925;51.026;13.752;2023-05-16T00:04:04;13.05;;;9.15;;
27489;SDS011;14925;51.026;13.752;2023-05-16T00:06:30;13.50;;;9.63;;
27489;SDS011;14925;51.026;13.752;2023-05-16T00:08:56;12.90;;;9.68;;
27489;SDS011;14925;51.026;13.752;2023-05-16T00:11:21;15.98;;;9.65;;
27489;SDS011;14925;51.026;13.752;2023-05-16T00:13:47;15.35;;;9.48;;
27489;SDS011;14925;51.026;13.752;2023-05-16T00:16:12;16.48;;;9.95;;
27489;SDS011;14925;51.026;13.752;2023-05-16T00:18:38;16.48;;;9.60;;
27489;SDS011;14925;51.026;13.752;2023-05-16T00:21:04;12.00;;;9.18;;
27489;SDS011;14925;51.026;13.752;2023-05-16T00:23:30;13.45;;;10.65;;
27489;SDS011;14925;51.026;13.752;2023-05-16T00:25:56;13.05;;;9.90;;
27489;SDS011;14925;51.026;13.752;2023-05-16T00:28:21;15.40;;;10.70;;
27489;SDS011;14925;51.026;13.752;2023-05-16T00:30:47;13.13;;;9.98;;
27489;SDS011;14925;51.026;13.752;2023-05-16T00:33:12;19.92;;;10.30;;
27489;SDS011;14925;51.026;13.752;2023-05-16T00:35:37;13.38;;;11.15;;
27489;SDS011;14925;51.026;13.752;2023-05-16T00:38:03;13.68;;;10.88;;
27489;SDS011;14925;51.026;13.752;2023-05-16T00:40:28;13.45;;;10.40;;
27489;SDS011;14925;51.026;13.752;2023-05-16T00:42:54;13.82;;;11.23;;
27489;SDS011;14925;51.026;13.752;2023-05-16T00:45:19;14.07;;;10.93;;
27489;SDS011;14925;51.026;13.752;2023-05-16T00:47:45;16.15;;;11.48;;
27489;SDS011;14925;51.026;13.752;2023-05-16T00:50:10;13.45;;;10.60;;
27489;SDS011;14925;51.026;13.752;2023-05-16T00:52:36;16.45;;;10.98;;
27489;SDS011;14925;51.026;13.752;2023-05-16T00:55:01;16.98;;;11.60;;
27489;SDS011;14925;51.026;13.752;2023-05-16T00:57:27;15.80;;;12.43;;
27489;SDS011;14925;51.026;13.752;2023-05-16T00:59:53;14.38;;;10.98;;
27489;SDS011;14925;51.026;13.752;2023-05-16T01:02:19;18.30;;;11.98;;
27489;SDS011;14925;51.026;13.752;2023-05-16T01:04:44;12.07;;;10.13;;
27489;SDS011;14925;51.026;13.752;2023-05-16T01:07:12;15.90;;;11.73;;
27489;SDS011;14925;51.026;13.752;2023-05-16T01:09:38;15.65;;;11.25;;
27489;SDS011;14925;51.026;13.752;2023-05-16T01:12:13;22.10;;;11.98;;
27489;SDS011;14925;51.026;13.752;2023-05-16T01:14:51;14.23;;;11.38;;
27489;SDS011;14925;51.026;13.752;2023-05-16T01:20:28;14.52;;;12.40;;
27489;SDS011;14925;51.026;13.752;2023-05-16T01:25:57;16.35;;;11.68;;
27489;SDS011;14925;51.026;13.752;2023-05-16T01:30:55;15.82;;;11.38;;
27489;SDS011;14925;51.026;13.752;2023-05-16T01:33:21;16.98;;;11.88;;
27489;SDS011;14925;51.026;13.752;2023-05-16T01:35:50;16.05;;;11.70;;
27489;SDS011;14925;51.026;13.752;2023-05-16T01:38:29;17.65;;;11.90;;
27489;SDS011;14925;51.026;13.752;2023-05-16T01:43:33;15.32;;;12.52;;
27489;SDS011;14925;51.026;13.752;2023-05-16T01:46:14;16.92;;;13.18;;
27489;SDS011;14925;51.026;13.752;2023-05-16T01:48:50;17.05;;;12.48;;
27489;SDS011;14925;51.026;13.752;2023-05-16T01:51:19;16.25;;;12.57;;
27489;SDS011;14925;51.026;13.752;2023-05-16T01:53:45;15.45;;;12.63;;
27489;SDS011;14925;51.026;13.752;2023-05-16T01:56:14;15.73;;;13.38;;
27489;SDS011;14925;51.026;13.752;2023-05-16T01:58:40;18.13;;;13.55;;
27489;SDS011;14925;51.026;13.752;2023-05-16T02:01:06;16.55;;;12.55;;
27489;SDS011;14925;51.026;13.752;2023-05-16T02:03:31;20.33;;;13.50;;
27489;SDS011;14925;51.026;13.752;2023-05-16T02:05:57;15.40;;;13.13;;
27489;SDS011;14925;51.026;13.752;2023-05-16T02:08:23;17.33;;;14.32;;
27489;SDS011;14925;51.026;13.752;2023-05-16T02:10:50;17.45;;;13.30;;
27489;SDS011;14925;51.026;13.752;2023-05-16T02:13:16;18.08;;;13.20;;
27489;SDS011;14925;51.026;13.752;2023-05-16T02:15:42;19.92;;;14.32;;
27489;SDS011;14925;51.026;13.752;2023-05-16T02:18:07;16.58;;;13.50;;
27489;SDS011;14925;51.026;13.752;2023-05-16T02:20:34;18.20;;;13.55;;
27489;SDS011;14925;51.026;13.752;2023-05-16T02:22:59;17.38;;;13.45;;
27489;SDS011;14925;51.026;13.752;2023-05-16T02:25:25;18.00;;;13.65;;
27489;SDS011;14925;51.026;13.752;2023-05-16T02:27:50;18.90;;;14.80;;
27489;SDS011;14925;51.026;13.752;2023-05-16T02:30:16;20.17;;;14.43;;
27489;SDS011;14925;51.026;13.752;2023-05-16T02:32:41;18.10;;;14.13;;
27489;SDS011;14925;51.026;13.752;2023-05-16T02:35:09;16.92;;;14.07;;
27489;SDS011;14925;51.026;13.752;2023-05-16T02:37:34;19.13;;;14.18;;
27489;SDS011;14925;51.026;13.752;2023-05-16T02:40:00;19.95;;;14.40;;
27489;SDS011;14925;51.026;13.752;2023-05-16T02:42:26;23.90;;;14.75;;
27489;SDS011;14925;51.026;13.752;2023-05-16T02:44:52;20.08;;;14.43;;
27489;SDS011;14925;51.026;13.752;2023-05-16T02:47:17;21.92;;;14.80;;
27489;SDS011;14925;51.026;13.752;2023-05-16T02:49:42;19.85;;;15.98;;
27489;SDS011;14925;51.026;13.752;2023-05-16T02:52:08;18.73;;;14.70;;
27489;SDS011;14925;51.026;13.752;2023-05-16T02:54:34;19.20;;;15.25;;
27489;SDS011;14925;51.026;13.752;2023-05-16T02:57:00;17.42;;;14.98;;
27489;SDS011;14925;51.026;13.752;2023-05-16T02:59:25;20.08;;;15.73;;
27489;SDS011;14925;51.026;13.752;2023-05-16T03:01:51;20.17;;;15.98;;
27489;SDS011;14925;51.026;13.752;2023-05-16T03:04:16;17.05;;;15.02;;
27489;SDS011;14925;51.026;13.752;2023-05-16T03:06:42;20.55;;;15.18;;
27489;SDS011;14925;51.026;13.752;2023-05-16T03:09:07;21.15;;;16.40;;
27489;SDS011;14925;51.026;13.752;2023-05-16T03:11:33;22.92;;;15.68;;
27489;SDS011;14925;51.026;13.752;2023-05-16T03:13:59;17.45;;;15.55;;
27489;SDS011;14925;51.026;13.752;2023-05-16T03:16:25;22.08;;;15.07;;
27489;SDS011;14925;51.026;13.752;2023-05-16T03:18:50;21.13;;;16.85;;
27489;SDS011;14925;51.026;13.752;2023-05-16T03:21:16;20.50;;;16.48;;
27489;SDS011;14925;51.026;13.752;2023-05-16T03:23:41;23.50;;;15.60;;
27489;SDS011;14925;51.026;13.752;2023-05-16T03:26:07;18.58;;;15.82;;
27489;SDS011;14925;51.026;13.752;2023-05-16T03:28:32;21.27;;;16.33;;
27489;SDS011;14925;51.026;13.752;2023-05-16T03:30:58;20.63;;;16.50;;
27489;SDS011;14925;51.026;13.752;2023-05-16T03:33:24;21.40;;;16.48;;
27489;SDS011;14925;51.026;13.752;2023-05-16T03:35:49;22.45;;;15.63;;
27489;SDS011;14925;51.026;13.752;2023-05-16T03:38:16;20.70;;;16.77;;
27489;SDS011;14925;51.026;13.752;2023-05-16T03:40:41;22.92;;;16.42;;
27489;SDS011;14925;51.026;13.752;2023-05-16T03:43:07;24.65;;;16.27;;
27489;SDS011;14925;51.026;13.752;2023-05-16T03:45:34;22.10;;;16.30;;
27489;SDS011;14925;51.026;13.752;2023-05-16T03:47:59;20.00;;;16.83;;
27489;SDS011;14925;51.026;13.752;2023-05-16T03:50:25;18.67;;;16.65;;
27489;SDS011;14925;51.026;13.752;2023-05-16T03:52:50;21.42;;;17.40;;
27489;SDS011;14925;51.026;13.752;2023-05-16T03:55:19;23.67;;;18.15;;
27489;SDS011;14925;51.026;13.752;2023-05-16T03:57:45;21.77;;;17.17;;
27489;SDS011;14925;51.026;13.752;2023-05-16T04:00:11;19.73;;;17.05;;
27489;SDS011;14925;51.026;13.752;2023-05-16T04:02:38;22.13;;;16.73;;
27489;SDS011;14925;51.026;13.752;2023-05-16T04:05:08;21.42;;;16.50;;
27489;SDS011;14925;51.026;13.752;2023-05-16T04:07:34;24.48;;;17.17;;
27489;SDS011;14925;51.026;13.752;2023-05-16T04:10:00;22.77;;;18.00;;
27489;SDS011;14925;51.026;13.752;2023-05-16T04:12:25;24.30;;;17.08;;
27489;SDS011;14925;51.026;13.752;2023-05-16T04:14:51;23.25;;;17.67;;
27489;SDS011;14925;51.026;13.752;2023-05-16T04:17:16;24.10;;;18.20;;
27489;SDS011;14925;51.026;13.752;2023-05-16T04:19:42;23.60;;;16.88;;
27489;SDS011;14925;51.026;13.752;2023-05-16T04:22:07;25.10;;;18.38;;
27489;SDS011;14925;51.026;13.752;2023-05-16T04:24:32;21.77;;;17.60;;
27489;SDS011;14925;51.026;13.752;2023-05-16T04:26:58;22.73;;;18.23;;
27489;SDS011;14925;51.026;13.752;2023-05-16T04:29:23;23.42;;;18.17;;
27489;SDS011;14925;51.026;13.752;2023-05-16T04:31:49;24.55;;;19.08;;
27489;SDS011;14925;51.026;13.752;2023-05-16T04:34:15;22.38;;;17.80;;
27489;SDS011;14925;51.026;13.752;2023-05-16T04:36:40;25.85;;;18.27;;
27489;SDS011;14925;51.026;13.752;2023-05-16T04:39:06;22.10;;;18.05;;
27489;SDS011;14925;51.026;13.752;2023-05-16T04:41:32;23.77;;;18.45;;
27489;SDS011;14925;51.026;13.752;2023-05-16T04:44:02;23.00;;;17.60;;
27489;SDS011;14925;51.026;13.752;2023-05-16T04:46:30;24.00;;;18.30;;
27489;SDS011;14925;51.026;13.752;2023-05-16T04:48:56;23.25;;;18.58;;
27489;SDS011;14925;51.026;13.752;2023-05-16T04:51:21;23.00;;;17.17;;
27489;SDS011;14925;51.026;13.752;2023-05-16T04:53:47;28.40;;;18.42;;
27489;SDS011;14925;51.026;13.752;2023-05-16T04:56:12;25.95;;;18.55;;
27489;SDS011;14925;51.026;13.752;2023-05-16T04:58:38;21.63;;;16.95;;
27489;SDS011;14925;51.026;13.752;2023-05-16T05:01:03;22.70;;;17.65;;
27489;SDS011;14925;51.026;13.752;2023-05-16T05:03:28;26.10;;;18.15;;
27489;SDS011;14925;51.026;13.752;2023-05-16T05:05:54;24.77;;;19.05;;
27489;SDS011;14925;51.026;13.752;2023-05-16T05:08:20;24.10;;;18.45;;
27489;SDS011;14925;51.026;13.752;2023-05-16T05:10:45;26.63;;;18.90;;
27489;SDS011;14925;51.026;13.752;2023-05-16T05:13:11;24.00;;;18.25;;
27489;SDS011;14925;51.026;13.752;2023-05-16T05:15:36;27.33;;;20.05;;
27489;SDS011;14925;51.026;13.752;2023-05-16T05:18:02;24.73;;;17.85;;
27489;SDS011;14925;51.026;13.752;2023-05-16T05:20:28;24.92;;;18.00;;
27489;SDS011;14925;51.026;13.752;2023-05-16T05:22:53;28.30;;;20.05;;
27489;SDS011;14925;51.026;13.752;2023-05-16T05:25:19;27.63;;;20.65;;
27489;SDS011;14925;51.026;13.752;2023-05-16T05:27:44;24.85;;;21.20;;
27489;SDS011;14925;51.026;13.752;2023-05-16T05:30:10;28.10;;;21.13;;
27489;SDS011;14925;51.026;13.752;2023-05-16T05:32:35;32.05;;;22.25;;
27489;SDS011;14925;51.026;13.752;2023-05-16T05:35:01;30.50;;;22.13;;
27489;SDS011;14925;51.026;13.752;2023-05-16T05:37:27;30.70;;;22.45;;
27489;SDS011;14925;51.026;13.752;2023-05-16T05:39:55;33.60;;;23.30;;
27489;SDS011;14925;51.026;13.752;2023-05-16T05:42:20;31.00;;;24.10;;
27489;SDS011;14925;51.026;13.752;2023-05-16T05:44:46;29.50;;;23.13;;
27489;SDS011;14925;51.026;13.752;2023-05-16T05:47:11;31.33;;;23.90;;
27489;SDS011;14925;51.026;13.752;2023-05-16T05:49:37;33.00;;;25.50;;
27489;SDS011;14925;51.026;13.752;2023-05-16T05:52:03;35.78;;;25.85;;
27489;SDS011;14925;51.026;13.752;2023-05-16T05:54:28;36.33;;;26.08;;
27489;SDS011;14925;51.026;13.752;2023-05-16T05:56:55;37.03;;;27.02;;
27489;SDS011;14925;51.026;13.752;2023-05-16T05:59:21;38.80;;;26.20;;
27489;SDS011;14925;51.026;13.752;2023-05-16T06:01:47;34.70;;;28.33;;
27489;SDS011;14925;51.026;13.752;2023-05-16T06:04:16;36.75;;;26.65;;
27489;SDS011;14925;51.026;13.752;2023-05-16T06:06:42;40.65;;;28.65;;
27489;SDS011;14925;51.026;13.752;2023-05-16T06:09:08;40.75;;;28.48;;
27489;SDS011;14925;51.026;13.752;2023-05-16T06:11:34;39.63;;;29.70;;
27489;SDS011;14925;51.026;13.752;2023-05-16T06:13:59;42.17;;;30.73;;
27489;SDS011;14925;51.026;13.752;2023-05-16T06:16:25;40.25;;;30.50;;
27489;SDS011;14925;51.026;13.752;2023-05-16T06:18:51;41.53;;;31.75;;
27489;SDS011;14925;51.026;13.752;2023-05-16T06:21:16;44.95;;;30.75;;
27489;SDS011;14925;51.026;13.752;2023-05-16T06:23:42;41.42;;;31.15;;
27489;SDS011;14925;51.026;13.752;2023-05-16T06:26:07;43.05;;;31.08;;
27489;SDS011;14925;51.026;13.752;2023-05-16T06:28:33;43.67;;;31.10;;
27489;SDS011;14925;51.026;13.752;2023-05-16T06:30:58;43.58;;;31.70;;
27489;SDS011;14925;51.026;13.752;2023-05-16T06:33:23;48.35;;;33.83;;
27489;SDS011;14925;51.026;13.752;2023-05-16T06:35:51;50.88;;;35.63;;
27489;SDS011;14925;51.026;13.752;2023-05-16T06:38:16;52.47;;;36.38;;
27489;SDS011;14925;51.026;13.752;2023-05-16T06:40:43;57.40;;;40.60;;
27489;SDS011;14925;51.026;13.752;2023-05-16T06:43:09;55.40;;;39.60;;
27489;SDS011;14925;51.026;13.752;2023-05-16T06:45:34;54.67;;;39.53;;
27489;SDS011;14925;51.026;13.752;2023-05-16T06:48:00;58.13;;;41.60;;
27489;SDS011;14925;51.026;13.752;2023-05-16T06:50:26;55.03;;;40.38;;
27489;SDS011;14925;51.026;13.752;2023-05-16T06:52:51;57.30;;;41.72;;
27489;SDS011;14925;51.026;13.752;2023-05-16T06:55:16;60.63;;;43.72;;
27489;SDS011;14925;51.026;13.752;2023-05-16T06:57:42;60.63;;;43.58;;
27489;SDS011;14925;51.026;13.752;2023-05-16T07:00:07;64.60;;;43.28;;
27489;SDS011;14925;51.026;13.752;2023-05-16T07:02:33;57.80;;;42.00;;
27489;SDS011;14925;51.026;13.752;2023-05-16T07:04:59;62.33;;;41.13;;
27489;SDS011;14925;51.026;13.752;2023-05-16T07:07:24;55.33;;;40.42;;
27489;SDS011;14925;51.026;13.752;2023-05-16T07:09:50;55.28;;;38.85;;
27489;SDS011;14925;51.026;13.752;2023-05-16T07:12:15;55.15;;;37.10;;
27489;SDS011;14925;51.026;13.752;2023-05-16T07:14:40;61.20;;;38.28;;
27489;SDS011;14925;51.026;13.752;2023-05-16T07:17:07;52.40;;;33.00;;
27489;SDS011;14925;51.026;13.752;2023-05-16T07:19:33;48.38;;;32.15;;
27489;SDS011;14925;51.026;13.752;2023-05-16T07:21:58;45.45;;;31.70;;
27489;SDS011;14925;51.026;13.752;2023-05-16T07:24:24;45.85;;;31.95;;
27489;SDS011;14925;51.026;13.752;2023-05-16T07:26:49;44.42;;;28.88;;
27489;SDS011;14925;51.026;13.752;2023-05-16T07:29:15;36.33;;;28.10;;
27489;SDS011;14925;51.026;13.752;2023-05-16T07:31:41;40.03;;;26.98;;
27489;SDS011;14925;51.026;13.752;2023-05-16T07:34:06;34.95;;;26.73;;
27489;SDS011;14925;51.026;13.752;2023-05-16T07:36:32;38.08;;;26.05;;
27489;SDS011;14925;51.026;13.752;2023-05-16T07:38:58;35.95;;;25.60;;
27489;SDS011;14925;51.026;13.752;2023-05-16T07:41:23;33.53;;;24.70;;
27489;SDS011;14925;51.026;13.752;2023-05-16T07:43:49;35.47;;;24.10;;
27489;SDS011;14925;51.026;13.752;2023-05-16T07:46:15;32.47;;;23.48;;
27489;SDS011;14925;51.026;13.752;2023-05-16T07:48:40;34.72;;;23.10;;
27489;SDS011;14925;51.026;13.752;2023-05-16T07:51:07;37.70;;;23.52;;
27489;SDS011;14925;51.026;13.752;2023-05-16T07:53:33;31.02;;;23.35;;
27489;SDS011;14925;51.026;13.752;2023-05-16T07:55:58;32.30;;;23.60;;
27489;SDS011;14925;51.026;13.752;2023-05-16T07:58:24;33.80;;;24.40;;
27489;SDS011;14925;51.026;13.752;2023-05-16T08:00:49;35.53;;;24.65;;
27489;SDS011;14925;51.026;13.752;2023-05-16T08:03:15;36.95;;;25.02;;
27489;SDS011;14925;51.026;13.752;2023-05-16T08:05:40;31.70;;;22.40;;
27489;SDS011;14925;51.026;13.752;2023-05-16T08:08:06;31.60;;;22.92;;
27489;SDS011;14925;51.026;13.752;2023-05-16T08:10:32;34.95;;;23.77;;
27489;SDS011;14925;51.026;13.752;2023-05-16T08:12:57;34.35;;;23.30;;
27489;SDS011;14925;51.026;13.752;2023-05-16T08:15:22;32.05;;;22.65;;
27489;SDS011;14925;51.026;13.752;2023-05-16T08:17:49;31.77;;;22.05;;
27489;SDS011;14925;51.026;13.752;2023-05-16T08:20:15;28.58;;;20.08;;
27489;SDS011;14925;51.026;13.752;2023-05-16T08:22:40;27.00;;;20.45;;
27489;SDS011;14925;51.026;13.752;2023-05-16T08:25:06;32.88;;;19.73;;
27489;SDS011;14925;51.026;13.752;2023-05-16T08:27:32;29.75;;;19.83;;
27489;SDS011;14925;51.026;13.752;2023-05-16T08:29:58;29.67;;;19.48;;
27489;SDS011;14925;51.026;13.752;2023-05-16T08:32:24;32.13;;;19.67;;
27489;SDS011;14925;51.026;13.752;2023-05-16T08:34:49;25.65;;;18.85;;
27489;SDS011;14925;51.026;13.752;2023-05-16T08:37:15;24.92;;;18.13;;
27489;SDS011;14925;51.026;13.752;2023-05-16T08:39:40;26.17;;;18.55;;
27489;SDS011;14925;51.026;13.752;2023-05-16T08:42:06;29.50;;;18.77;;
27489;SDS011;14925;51.026;13.752;2023-05-16T08:44:32;26.60;;;18.67;;
27489;SDS011;14925;51.026;13.752;2023-05-16T08:46:58;26.35;;;18.23;;
27489;SDS011;14925;51.026;13.752;2023-05-16T08:49:31;26.17;;;18.00;;
27489;SDS011;14925;51.026;13.752;2023-05-16T08:51:58;28.65;;;16.80;;
27489;SDS011;14925;51.026;13.752;2023-05-16T08:54:25;26.27;;;17.75;;
27489;SDS011;14925;51.026;13.752;2023-05-16T08:56:51;23.38;;;16.38;;
27489;SDS011;14925;51.026;13.752;2023-05-16T08:59:17;23.40;;;16.70;;
27489;SDS011;14925;51.026;13.752;2023-05-16T09:01:43;22.98;;;16.27;;
27489;SDS011;14925;51.026;13.752;2023-05-16T09:04:08;25.42;;;16.48;;
27489;SDS011;14925;51.026;13.752;2023-05-16T09:06:35;20.40;;;15.05;;
27489;SDS011;14925;51.026;13.752;2023-05-16T09:09:00;23.13;;;15.60;;
27489;SDS011;14925;51.026;13.752;2023-05-16T09:11:27;24.05;;;14.98;;
27489;SDS011;14925;51.026;13.752;2023-05-16T09:13:52;25.15;;;15.32;;
27489;SDS011;14925;51.026;13.752;2023-05-16T09:16:18;20.02;;;15.52;;
27489;SDS011;14925;51.026;13.752;2023-05-16T09:18:45;27.48;;;15.43;;
27489;SDS011;14925;51.026;13.752;2023-05-16T09:21:18;22.70;;;16.08;;
27489;SDS011;14925;51.026;13.752;2023-05-16T09:23:44;22.20;;;15.15;;
27489;SDS011;14925;51.026;13.752;2023-05-16T09:26:12;27.25;;;16.67;;
27489;SDS011;14925;51.026;13.752;2023-05-16T09:28:39;22.40;;;15.90;;
27489;SDS011;14925;51.026;13.752;2023-05-16T09:31:18;23.83;;;15.57;;
27489;SDS011;14925;51.026;13.752;2023-05-16T09:33:47;22.95;;;15.30;;
27489;SDS011;14925;51.026;13.752;2023-05-16T09:36:16;21.95;;;15.10;;
27489;SDS011;14925;51.026;13.752;2023-05-16T09:38:41;23.92;;;14.90;;
27489;SDS011;14925;51.026;13.752;2023-05-16T09:41:08;24.23;;;15.43;;
27489;SDS011;14925;51.026;13.752;2023-05-16T09:43:36;24.77;;;14.55;;
27489;SDS011;14925;51.026;13.752;2023-05-16T09:46:02;25.65;;;14.93;;
27489;SDS011;14925;51.026;13.752;2023-05-16T09:48:28;19.58;;;15.25;;
27489;SDS011;14925;51.026;13.752;2023-05-16T09:50:53;27.85;;;14.25;;
27489;SDS011;14925;51.026;13.752;2023-05-16T09:53:25;27.77;;;14.07;;
27489;SDS011;14925;51.026;13.752;2023-05-16T09:56:00;19.65;;;13.52;;
27489;SDS011;14925;51.026;13.752;2023-05-16T09:58:29;20.77;;;14.20;;
27489;SDS011;14925;51.026;13.752;2023-05-16T10:00:56;21.83;;;14.13;;
27489;SDS011;14925;51.026;13.752;2023-05-16T10:03:22;21.48;;;15.43;;
27489;SDS011;14925;51.026;13.752;2023-05-16T10:05:47;19.08;;;13.93;;
27489;SDS011;14925;51.026;13.752;2023-05-16T10:08:13;21.45;;;14.15;;
27489;SDS011;14925;51.026;13.752;2023-05-16T10:10:39;19.92;;;14.80;;
27489;SDS011;14925;51.026;13.752;2023-05-16T10:13:05;19.00;;;13.80;;
27489;SDS011;14925;51.026;13.752;2023-05-16T10:15:32;17.70;;;13.65;;
27489;SDS011;14925;51.026;13.752;2023-05-16T10:17:58;19.73;;;14.32;;
27489;SDS011;14925;51.026;13.752;2023-05-16T10:20:24;19.48;;;14.20;;
27489;SDS011;14925;51.026;13.752;2023-05-16T10:22:50;22.75;;;13.75;;
27489;SDS011;14925;51.026;13.752;2023-05-16T10:27:58;19.27;;;13.45;;
27489;SDS011;14925;51.026;13.752;2023-05-16T10:30:24;23.83;;;13.30;;
27489;SDS011;14925;51.026;13.752;2023-05-16T10:32:51;22.20;;;14.50;;
27489;SDS011;14925;51.026;13.752;2023-05-16T10:35:17;16.90;;;12.32;;
27489;SDS011;14925;51.026;13.752;2023-05-16T10:37:43;21.42;;;13.98;;
27489;SDS011;14925;51.026;13.752;2023-05-16T10:40:09;20.27;;;13.60;;
27489;SDS011;14925;51.026;13.752;2023-05-16T10:42:35;19.13;;;12.98;;
27489;SDS011;14925;51.026;13.752;2023-05-16T10:45:16;19.42;;;13.50;;
27489;SDS011;14925;51.026;13.752;2023-05-16T10:47:50;18.33;;;12.18;;
27489;SDS011;14925;51.026;13.752;2023-05-16T10:50:36;15.05;;;12.32;;
27489;SDS011;14925;51.026;13.752;2023-05-16T11:01:18;19.38;;;11.52;;
27489;SDS011;14925;51.026;13.752;2023-05-16T11:04:00;19.65;;;11.55;;
27489;SDS011;14925;51.026;13.752;2023-05-16T11:06:31;26.02;;;11.55;;
27489;SDS011;14925;51.026;13.752;2023-05-16T11:11:38;15.40;;;10.15;;
27489;SDS011;14925;51.026;13.752;2023-05-16T11:14:22;17.55;;;9.43;;
27489;SDS011;14925;51.026;13.752;2023-05-16T11:16:49;14.27;;;9.25;;
27489;SDS011;14925;51.026;13.752;2023-05-16T11:20:01;13.65;;;8.00;;
27489;SDS011;14925;51.026;13.752;2023-05-16T11:24:33;8.95;;;7.53;;
27489;SDS011;14925;51.026;13.752;2023-05-16T11:27:00;11.65;;;7.75;;
27489;SDS011;14925;51.026;13.752;2023-05-16T11:29:27;12.63;;;7.65;;
27489;SDS011;14925;51.026;13.752;2023-05-16T11:31:53;16.63;;;8.52;;
27489;SDS011;14925;51.026;13.752;2023-05-16T11:34:18;11.20;;;7.63;;
27489;SDS011;14925;51.026;13.752;2023-05-16T11:52:15;13.25;;;7.10;;
27489;SDS011;14925;51.026;13.752;2023-05-16T11:54:40;10.07;;;7.03;;
27489;SDS011;14925;51.026;13.752;2023-05-16T11:57:06;12.35;;;6.75;;
27489;SDS011;14925;51.026;13.752;2023-05-16T11:59:33;17.33;;;6.80;;
27489;SDS011;14925;51.026;13.752;2023-05-16T12:01:58;10.77;;;7.00;;
27489;SDS011;14925;51.026;13.752;2023-05-16T12:04:27;10.77;;;6.25;;
27489;SDS011;14925;51.026;13.752;2023-05-16T12:06:57;11.35;;;6.68;;
27489;SDS011;14925;51.026;13.752;2023-05-16T12:09:23;9.57;;;6.70;;
27489;SDS011;14925;51.026;13.752;2023-05-16T12:11:49;10.68;;;5.82;;
27489;SDS011;14925;51.026;13.752;2023-05-16T12:14:16;8.35;;;5.90;;
27489;SDS011;14925;51.026;13.752;2023-05-16T12:16:41;7.38;;;5.97;;
27489;SDS011;14925;51.026;13.752;2023-05-16T12:19:07;8.15;;;6.05;;
27489;SDS011;14925;51.026;13.752;2023-05-16T12:21:34;10.98;;;6.07;;
27489;SDS011;14925;51.026;13.752;2023-05-16T12:24:00;9.93;;;5.93;;
27489;SDS011;14925;51.026;13.752;2023-05-16T12:26:26;8.88;;;5.70;;
27489;SDS011;14925;51.026;13.752;2023-05-16T12:29:03;10.38;;;6.47;;
27489;SDS011;14925;51.026;13.752;2023-05-16T12:31:30;10.40;;;5.50;;
27489;SDS011;14925;51.026;13.752;2023-05-16T12:33:56;8.93;;;5.63;;
27489;SDS011;14925;51.026;13.752;2023-05-16T12:36:23;8.30;;;5.72;;
27489;SDS011;14925;51.026;13.752;2023-05-16T12:38:49;9.05;;;6.28;;
27489;SDS011;14925;51.026;13.752;2023-05-16T12:41:22;8.27;;;5.47;;
27489;SDS011;14925;51.026;13.752;2023-05-16T12:43:47;8.82;;;6.00;;
27489;SDS011;14925;51.026;13.752;2023-05-16T12:46:13;10.48;;;5.72;;
27489;SDS011;14925;51.026;13.752;2023-05-16T12:48:40;10.30;;;5.85;;
27489;SDS011;14925;51.026;13.752;2023-05-16T12:51:12;11.85;;;6.18;;
27489;SDS011;14925;51.026;13.752;2023-05-16T12:53:42;8.45;;;5.85;;
27489;SDS011;14925;51.026;13.752;2023-05-16T12:56:11;11.47;;;5.90;;
27489;SDS011;14925;51.026;13.752;2023-05-16T12:58:38;12.50;;;6.45;;
27489;SDS011;14925;51.026;13.752;2023-05-16T13:01:04;8.02;;;5.72;;
27489;SDS011;14925;51.026;13.752;2023-05-16T13:03:30;11.13;;;5.80;;
27489;SDS011;14925;51.026;13.752;2023-05-16T13:05:56;10.45;;;5.68;;
27489;SDS011;14925;51.026;13.752;2023-05-16T13:08:22;10.40;;;5.72;;
27489;SDS011;14925;51.026;13.752;2023-05-16T13:10:47;10.13;;;5.68;;
27489;SDS011;14925;51.026;13.752;2023-05-16T13:13:13;7.72;;;5.22;;
27489;SDS011;14925;51.026;13.752;2023-05-16T13:15:39;9.05;;;5.80;;
27489;SDS011;14925;51.026;13.752;2023-05-16T13:18:06;8.65;;;5.45;;
27489;SDS011;14925;51.026;13.752;2023-05-16T13:20:32;8.48;;;5.10;;
27489;SDS011;14925;51.026;13.752;2023-05-16T13:22:57;7.50;;;5.00;;
27489;SDS011;14925;51.026;13.752;2023-05-16T13:25:23;10.35;;;5.85;;
27489;SDS011;14925;51.026;13.752;2023-05-16T13:27:48;9.60;;;5.60;;
27489;SDS011;14925;51.026;13.752;2023-05-16T13:30:14;8.05;;;5.45;;
27489;SDS011;14925;51.026;13.752;2023-05-16T13:32:40;9.95;;;5.28;;
27489;SDS011;14925;51.026;13.752;2023-05-16T13:35:06;10.20;;;4.95;;
27489;SDS011;14925;51.026;13.752;2023-05-16T13:37:34;6.32;;;4.93;;
27489;SDS011;14925;51.026;13.752;2023-05-16T13:40:00;7.63;;;4.93;;
27489;SDS011;14925;51.026;13.752;2023-05-16T13:42:26;8.13;;;5.10;;
27489;SDS011;14925;51.026;13.752;2023-05-16T13:44:51;8.25;;;4.50;;
27489;SDS011;14925;51.026;13.752;2023-05-16T13:47:17;8.90;;;4.50;;
27489;SDS011;14925;51.026;13.752;2023-05-16T13:49:42;12.48;;;4.70;;
27489;SDS011;14925;51.026;13.752;2023-05-16T13:52:08;6.20;;;4.78;;
27489;SDS011;14925;51.026;13.752;2023-05-16T13:54:33;7.40;;;4.45;;
27489;SDS011;14925;51.026;13.752;2023-05-16T13:56:59;7.97;;;4.60;;
27489;SDS011;14925;51.026;13.752;2023-05-16T13:59:26;7.78;;;4.68;;
27489;SDS011;14925;51.026;13.752;2023-05-16T14:01:51;8.10;;;5.13;;
27489;SDS011;14925;51.026;13.752;2023-05-16T14:04:17;6.72;;;4.88;;
27489;SDS011;14925;51.026;13.752;2023-05-16T14:06:42;8.95;;;4.90;;
27489;SDS011;14925;51.026;13.752;2023-05-16T14:09:08;7.13;;;4.60;;
27489;SDS011;14925;51.026;13.752;2023-05-16T14:11:33;9.15;;;4.57;;
27489;SDS011;14925;51.026;13.752;2023-05-16T14:13:58;10.02;;;4.45;;
27489;SDS011;14925;51.026;13.752;2023-05-16T14:16:24;9.90;;;4.10;;
27489;SDS011;14925;51.026;13.752;2023-05-16T14:18:50;9.13;;;4.28;;
27489;SDS011;14925;51.026;13.752;2023-05-16T14:21:15;12.82;;;4.13;;
27489;SDS011;14925;51.026;13.752;2023-05-16T14:23:41;8.05;;;3.95;;
27489;SDS011;14925;51.026;13.752;2023-05-16T14:26:07;10.73;;;4.57;;
27489;SDS011;14925;51.026;13.752;2023-05-16T14:28:32;9.25;;;4.10;;
27489;SDS011;14925;51.026;13.752;2023-05-16T14:30:58;6.70;;;3.80;;
27489;SDS011;14925;51.026;13.752;2023-05-16T14:33:24;7.82;;;4.10;;
27489;SDS011;14925;51.026;13.752;2023-05-16T14:35:50;13.23;;;4.45;;
27489;SDS011;14925;51.026;13.752;2023-05-16T14:38:16;9.43;;;3.78;;
27489;SDS011;14925;51.026;13.752;2023-05-16T14:40:42;12.15;;;4.68;;
27489;SDS011;14925;51.026;13.752;2023-05-16T14:43:09;9.63;;;3.78;;
27489;SDS011;14925;51.026;13.752;2023-05-16T14:45:34;9.45;;;3.80;;
27489;SDS011;14925;51.026;13.752;2023-05-16T14:48:00;9.00;;;3.65;;
27489;SDS011;14925;51.026;13.752;2023-05-16T14:50:26;8.25;;;4.00;;
27489;SDS011;14925;51.026;13.752;2023-05-16T14:52:51;11.05;;;3.70;;